Time;durP1;ratioP1;P1;durP2;ratioP2;P2;SDS_P1;SDS_P2;PMS_P1;PMS_P2;Temp;Humidity;BMP_temperature;BMP_pressure;BME280_temperature;BME280_humidity;BME280_pressure;Samples;Min_cycle;Max_cycle;Signal;HPM_P1;HPM_P2
2022/11/14 05:31:07;;;;;;;;;18.50;18.50;;;;;9.57;73.89;100805.16;4968517;28;45544;-74
2022/11/14 05:33:34;;;;;;;;;14.75;14.00;;;;;9.72;73.83;100830.44;4975083;28;45337;-74
2022/11/14 05:36:04;;;;;;;;;19.25;17.50;;;;;9.73;73.77;100840.19;4976604;28;45309;-74
2022/11/14 05:38:31;;;;;;;;;15.50;15.25;;;;;9.72;73.92;100823.28;4977068;28;45365;-74
2022/11/14 05:40:56;;;;;;;;;17.25;14.75;;;;;9.70;73.78;100822.44;4975947;28;45259;-74
2022/11/14 05:43:22;;;;;;;;;15.00;15.00;;;;;9.71;73.78;100821.53;4976365;28;45310;-75
2022/11/14 05:45:48;;;;;;;;;20.00;18.50;;;;;9.70;73.63;100810.88;4976868;28;45346;-73
2022/11/14 05:48:13;;;;;;;;;12.00;11.00;;;;;9.72;73.97;100817.03;4975923;28;45334;-72
2022/11/14 05:50:39;;;;;;;;;19.25;17.00;;;;;9.71;73.74;100810.81;4976083;28;45267;-75
2022/11/14 05:53:04;;;;;;;;;16.00;13.50;;;;;9.79;74.23;100810.50;4975833;28;46071;-75
2022/11/14 05:55:29;;;;;;;;;12.50;12.50;;;;;9.83;74.24;100813.00;4959211;28;45516;-75
2022/11/14 05:58:00;;;;;;;;;20.25;18.50;;;;;9.85;73.53;100810.25;4976313;28;45206;-75
2022/11/14 06:00:26;;;;;;;;;16.25;15.00;;;;;9.71;73.74;100786.72;4975709;28;45300;-74
2022/11/14 06:02:53;;;;;;;;;22.50;19.75;;;;;9.85;73.94;100799.56;4969478;28;45416;-74
2022/11/14 06:05:19;;;;;;;;;18.50;16.50;;;;;9.82;73.91;100805.91;4970027;28;45374;-74
2022/11/14 06:07:45;;;;;;;;;19.00;19.00;;;;;9.85;73.99;100805.78;4958508;28;45397;-77
2022/11/14 06:10:12;;;;;;;;;17.00;14.50;;;;;9.80;74.24;100805.09;4975435;28;45587;-78
2022/11/14 06:12:37;;;;;;;;;16.50;15.25;;;;;9.66;74.41;100785.19;4979537;28;45379;-76
2022/11/14 06:15:03;;;;;;;;;17.25;17.25;;;;;9.74;74.48;100791.97;4975536;28;45481;-75
2022/11/14 06:17:29;;;;;;;;;18.25;18.25;;;;;9.77;74.60;100801.69;4975033;28;45321;-77
2022/11/14 06:19:54;;;;;;;;;25.75;17.25;;;;;9.72;74.81;100801.84;4975196;28;45394;-76
2022/11/14 06:22:20;;;;;;;;;20.25;20.25;;;;;9.71;74.37;100799.22;4975476;28;45340;-75
2022/11/14 06:24:47;;;;;;;;;23.00;19.00;;;;;9.67;74.62;100805.66;4974965;28;45498;-75
2022/11/14 06:27:12;;;;;;;;;19.00;18.25;;;;;9.66;75.02;100801.25;4954600;28;45250;-73
2022/11/14 06:29:37;;;;;;;;;17.25;16.75;;;;;9.68;74.86;100802.94;4968423;28;45614;-74
2022/11/14 06:32:03;;;;;;;;;19.00;14.75;;;;;9.69;75.00;100814.50;4976016;28;45330;-75
2022/11/14 06:34:28;;;;;;;;;18.50;16.00;;;;;9.66;74.97;100794.09;4976652;28;45522;-74
2022/11/14 06:36:53;;;;;;;;;17.00;16.00;;;;;9.75;74.60;100809.78;4977190;28;46101;-74
2022/11/14 06:39:19;;;;;;;;;16.50;15.00;;;;;9.76;74.65;100807.97;4975275;28;45412;-74
2022/11/14 06:41:44;;;;;;;;;15.50;15.50;;;;;9.78;74.04;100808.78;4974752;28;46605;-73
2022/11/14 06:44:09;;;;;;;;;20.25;16.75;;;;;9.79;74.46;100821.19;4974780;28;45189;-74
2022/11/14 06:46:35;;;;;;;;;17.50;16.75;;;;;9.67;74.17;100798.50;4974538;28;45360;-76
2022/11/14 06:49:00;;;;;;;;;17.75;15.25;;;;;9.81;74.35;100814.00;4945474;28;46141;-75
2022/11/14 06:51:25;;;;;;;;;17.50;15.75;;;;;9.83;73.92;100814.81;4954999;28;45426;-73
2022/11/14 06:53:50;;;;;;;;;16.75;14.50;;;;;9.80;73.90;100817.59;4955854;28;45360;-72
2022/11/14 06:56:19;;;;;;;;;16.50;15.50;;;;;9.70;73.57;100822.44;4976933;28;45521;-69
2022/11/14 06:58:47;;;;;;;;;20.50;18.00;;;;;9.63;74.08;100825.44;4959799;28;47417;-71
2022/11/14 07:01:18;;;;;;;;;21.50;16.00;;;;;9.54;74.82;100834.72;4977375;28;45417;-72
2022/11/14 07:03:44;;;;;;;;;16.75;15.00;;;;;9.40;74.68;100840.63;4977480;28;45432;-72
2022/11/14 07:06:14;;;;;;;;;19.50;16.50;;;;;9.30;75.29;100841.03;4977953;28;45315;-73
2022/11/14 07:08:39;;;;;;;;;18.25;13.00;;;;;9.15;76.49;100838.97;4977217;28;45432;-73
2022/11/14 07:11:07;;;;;;;;;12.75;12.75;;;;;9.10;75.94;100845.34;4977290;28;46034;-71
2022/11/14 07:13:34;;;;;;;;;17.00;13.75;;;;;9.07;76.45;100849.97;4977227;28;45412;-72
2022/11/14 07:16:00;;;;;;;;;18.50;16.50;;;;;9.14;76.39;100846.13;4977381;28;45504;-72
2022/11/14 07:18:26;;;;;;;;;12.25;12.25;;;;;9.18;76.93;100846.88;4976973;28;45453;-72
2022/11/14 07:21:03;;;;;;;;;15.50;15.50;;;;;9.23;76.23;100847.56;4977207;28;46118;-71
2022/11/14 07:23:30;;;;;;;;;27.50;19.75;;;;;9.25;75.91;100841.25;4976857;28;45406;-72
2022/11/14 07:26:00;;;;;;;;;16.75;16.25;;;;;9.21;75.82;100839.59;4977271;28;45409;-71
2022/11/14 07:28:26;;;;;;;;;17.50;17.25;;;;;8.99;76.34;100825.31;4976787;28;45437;-71
2022/11/14 07:30:52;;;;;;;;;19.25;15.75;;;;;9.09;76.82;100842.75;4976889;28;47404;-71
2022/11/14 07:33:17;;;;;;;;;15.00;15.00;;;;;8.99;76.34;100811.94;4976750;28;45330;-71
2022/11/14 07:35:42;;;;;;;;;19.00;17.25;;;;;9.13;76.22;100840.81;4977431;28;45497;-71
2022/11/14 07:38:08;;;;;;;;;24.50;18.25;;;;;9.09;75.96;100842.75;4976667;28;45449;-73
2022/11/14 07:40:33;;;;;;;;;21.25;16.75;;;;;9.09;75.75;100853.47;4959402;28;47012;-71
2022/11/14 07:43:00;;;;;;;;;18.25;15.00;;;;;9.04;76.04;100848.28;4977084;28;45241;-73
2022/11/14 07:45:26;;;;;;;;;18.00;14.50;;;;;8.94;76.41;100837.97;4977565;28;45323;-71
2022/11/14 07:48:00;;;;;;;;;20.25;15.00;;;;;9.05;76.26;100847.34;4976471;28;45620;-70
2022/11/14 07:50:27;;;;;;;;;16.25;15.50;;;;;9.08;75.97;100838.34;4976734;28;45631;-71
2022/11/14 07:52:54;;;;;;;;;19.25;14.00;;;;;9.17;75.94;100839.78;4976840;28;45389;-72
2022/11/14 07:55:20;;;;;;;;;13.25;13.25;;;;;9.23;75.79;100845.78;4976773;28;45397;-72
2022/11/14 07:57:46;;;;;;;;;18.75;17.00;;;;;9.28;75.39;100840.22;4976712;28;45387;-72
2022/11/14 08:00:13;;;;;;;;;15.75;14.50;;;;;9.16;75.76;100836.25;4976693;28;45640;-70
2022/11/14 08:02:39;;;;;;;;;13.50;13.50;;;;;9.20;75.50;100832.50;4976059;28;45424;-72
2022/11/14 08:05:05;;;;;;;;;10.75;10.75;;;;;9.23;75.52;100837.75;4976400;28;45450;-71
2022/11/14 08:07:30;;;;;;;;;14.50;13.00;;;;;9.28;75.84;100833.06;4958780;28;47059;-72
2022/11/14 08:09:56;;;;;;;;;14.50;12.50;;;;;9.33;75.54;100830.22;4976331;28;45987;-73
2022/11/14 08:12:21;;;;;;;;;12.50;12.00;;;;;9.24;75.19;100812.75;4976434;28;45290;-72
2022/11/14 08:14:46;;;;;;;;;13.00;10.00;;;;;9.45;75.07;100838.63;4976703;28;45448;-71
2022/11/14 08:17:12;;;;;;;;;14.50;12.00;;;;;9.47;75.72;100839.44;4976019;28;45588;-71
2022/11/14 08:19:37;;;;;;;;;13.25;12.00;;;;;9.53;74.81;100840.16;4976109;28;45734;-72
2022/11/14 08:22:02;;;;;;;;;14.00;14.00;;;;;9.44;74.88;100825.34;4976167;28;45416;-71
2022/11/14 08:24:28;;;;;;;;;14.25;13.75;;;;;9.47;74.86;100831.44;4974421;28;45566;-72
2022/11/14 08:26:53;;;;;;;;;12.75;12.75;;;;;9.36;74.96;100800.66;4967260;28;45492;-72
2022/11/14 08:29:19;;;;;;;;;12.75;12.75;;;;;9.62;74.71;100834.41;4964269;28;45505;-72
2022/11/14 08:31:45;;;;;;;;;19.75;14.75;;;;;9.61;74.85;100833.53;4956005;28;45327;-73
2022/11/14 08:34:10;;;;;;;;;13.00;10.75;;;;;9.64;74.62;100825.38;4957784;28;45344;-73
2022/11/14 08:36:36;;;;;;;;;12.25;11.25;;;;;9.66;74.58;100825.34;4958743;28;45477;-72
2022/11/14 08:39:01;;;;;;;;;13.75;11.25;;;;;9.76;74.16;100832.06;4958168;28;46436;-72
2022/11/14 08:41:26;;;;;;;;;12.50;12.50;;;;;9.79;74.35;100830.09;4958379;28;45419;-72
2022/11/14 08:43:52;;;;;;;;;14.75;10.25;;;;;9.84;73.85;100835.28;4958812;28;45751;-72
2022/11/14 08:46:17;;;;;;;;;13.25;11.50;;;;;9.80;73.59;100833.66;4959295;28;45588;-72
2022/11/14 08:48:42;;;;;;;;;11.25;10.00;;;;;9.83;73.99;100845.13;4975881;28;46102;-71
2022/11/14 08:51:08;;;;;;;;;12.75;10.50;;;;;9.85;73.62;100842.41;4975460;28;54104;-73
2022/11/14 08:53:34;;;;;;;;;14.00;11.00;;;;;9.71;73.93;100824.19;4975853;28;45358;-72
2022/11/14 08:55:59;;;;;;;;;11.50;11.50;;;;;9.85;73.95;100851.31;4975765;28;45556;-73
2022/11/14 08:58:28;;;;;;;;;16.00;13.50;;;;;9.84;74.30;100846.00;4976077;28;46047;-72
2022/11/14 09:00:54;;;;;;;;;13.00;9.75;;;;;9.93;73.99;100850.09;4955404;28;45492;-73
2022/11/14 09:03:19;;;;;;;;;12.00;12.00;;;;;9.95;73.57;100848.25;4965012;28;45439;-71
2022/11/14 09:05:51;;;;;;;;;16.25;14.25;;;;;9.98;73.62;100848.97;4938751;28;45443;-73
2022/11/14 09:08:17;;;;;;;;;11.25;11.00;;;;;9.96;73.50;100841.91;4960467;28;46358;-72
2022/11/14 09:10:42;;;;;;;;;15.50;14.00;;;;;10.03;73.68;100843.44;4975668;28;45484;-71
2022/11/14 09:13:07;;;;;;;;;15.75;14.25;;;;;9.98;73.09;100830.22;4975346;28;45773;-72
2022/11/14 09:15:33;;;;;;;;;13.75;12.75;;;;;10.10;72.85;100851.16;4975234;28;45334;-71
2022/11/14 09:17:59;;;;;;;;;13.00;13.00;;;;;10.06;73.10;100837.94;4973947;28;50620;-72
2022/11/14 09:20:26;;;;;;;;;12.00;12.00;;;;;10.09;73.25;100841.38;4975047;28;45532;-71
2022/11/14 09:22:52;;;;;;;;;16.25;13.75;;;;;10.17;73.02;100843.72;4975410;28;45256;-72
2022/11/14 09:25:18;;;;;;;;;11.00;11.00;;;;;10.22;73.27;100847.09;4975363;28;45366;-71
2022/11/14 09:27:43;;;;;;;;;13.75;11.25;;;;;10.24;72.73;100839.88;4975342;28;46049;-73
2022/11/14 09:30:09;;;;;;;;;16.50;14.25;;;;;10.28;72.70;100840.63;4975200;28;45367;-73
2022/11/14 09:32:35;;;;;;;;;13.00;13.00;;;;;10.33;72.37;100850.19;4964237;28;45409;-71
2022/11/14 09:35:00;;;;;;;;;16.75;15.25;;;;;10.39;72.25;100851.72;4955410;28;45525;-71
2022/11/14 09:37:25;;;;;;;;;17.00;14.00;;;;;10.25;72.17;100825.53;4955711;28;45801;-73
2022/11/14 09:39:51;;;;;;;;;16.50;16.00;;;;;10.33;71.67;100844.81;4955397;28;45437;-72
2022/11/14 09:42:37;;;;;;;;;12.25;11.00;;;;;10.33;72.05;100838.59;4955966;28;45417;-72
2022/11/14 09:45:09;;;;;;;;;15.75;15.75;;;;;10.28;72.31;100822.72;4962064;28;45712;-70
2022/11/14 09:47:45;;;;;;;;;16.00;16.00;;;;;10.37;71.85;100837.53;4974772;28;46213;-72
2022/11/14 09:50:10;;;;;;;;;14.50;10.50;;;;;10.41;71.59;100836.44;4974158;28;45492;-71
2022/11/14 09:52:43;;;;;;;;;10.75;10.75;;;;;10.32;72.05;100831.50;4974993;28;45290;-73
2022/11/14 09:55:30;;;;;;;;;13.75;13.75;;;;;10.36;71.67;100830.44;4974136;28;45270;-72
2022/11/14 09:57:56;;;;;;;;;21.00;18.50;;;;;10.33;72.33;100831.44;4974818;28;46500;-72
2022/11/14 10:00:28;;;;;;;;;19.25;18.00;;;;;10.37;72.15;100840.22;4974664;28;45418;-70
2022/11/14 10:02:59;;;;;;;;;19.75;16.75;;;;;10.25;72.09;100812.13;4974719;28;45361;-71
2022/11/14 10:05:43;;;;;;;;;22.50;22.50;;;;;10.41;71.53;100842.69;4974605;28;45386;-71
2022/11/14 10:08:17;;;;;;;;;18.25;17.25;;;;;10.43;71.99;100854.22;4974367;28;46178;-72
2022/11/14 10:11:09;;;;;;;;;24.50;21.75;;;;;10.38;72.02;100840.13;4974570;28;45422;-70
2022/11/14 10:13:51;;;;;;;;;18.75;18.25;;;;;10.40;71.94;100846.31;4974115;28;45345;-73
2022/11/14 10:16:55;;;;;;;;;19.75;18.00;;;;;10.48;71.76;100840.59;4973165;28;45312;-70
2022/11/14 10:19:40;;;;;;;;;21.25;18.75;;;;;10.57;71.86;100840.19;4905694;28;45529;-71
2022/11/14 10:22:27;;;;;;;;;21.50;20.25;;;;;10.61;71.51;100831.97;4895288;29;45514;-71
2022/11/14 10:25:12;;;;;;;;;22.75;20.50;;;;;10.69;71.63;100828.94;4943699;28;45478;-72
2022/11/14 10:28:19;;;;;;;;;18.50;18.50;;;;;10.76;71.07;100814.31;4975177;28;45375;-72
2022/11/14 10:30:51;;;;;;;;;21.75;20.00;;;;;10.93;70.39;100826.94;4960291;28;46370;-72
2022/11/14 10:33:17;;;;;;;;;23.00;19.50;;;;;11.00;70.47;100815.00;4978445;28;45255;-71
2022/11/14 10:35:59;;;;;;;;;17.75;17.75;;;;;11.02;70.18;100810.44;4979098;28;45407;-69
2022/11/14 10:38:44;;;;;;;;;23.75;22.25;;;;;11.11;70.08;100811.81;4978408;28;45310;-71
2022/11/14 10:41:10;;;;;;;;;26.50;23.50;;;;;11.14;70.00;100800.94;4924135;28;46295;-71
2022/11/14 10:43:47;;;;;;;;;20.00;19.50;;;;;11.24;69.84;100803.09;4977454;28;45326;-72
2022/11/14 10:46:42;;;;;;;;;22.25;19.00;;;;;11.32;69.66;100800.03;4977275;28;45288;-72
2022/11/14 10:49:19;;;;;;;;;19.00;19.00;;;;;11.42;69.39;100803.16;4977643;28;45362;-72
2022/11/14 10:51:54;;;;;;;;;24.00;20.00;;;;;11.61;69.06;100802.19;4977892;28;45289;-71
2022/11/14 10:54:32;;;;;;;;;24.25;20.00;;;;;11.86;68.53;100801.00;4960150;28;45440;-70
2022/11/14 10:56:57;;;;;;;;;20.75;19.00;;;;;12.09;67.29;100789.94;4977413;28;45509;-72
2022/11/14 10:59:22;;;;;;;;;19.25;18.00;;;;;12.42;67.33;100790.88;4959611;28;46326;-71
2022/11/14 11:01:54;;;;;;;;;19.25;17.25;;;;;12.73;66.39;100790.13;4977182;28;45313;-72
2022/11/14 11:04:31;;;;;;;;;26.00;23.50;;;;;13.24;65.52;100786.44;4959046;28;45747;-71
2022/11/14 11:12:59;;;;;;;;;17.75;17.75;;;;;15.50;58.55;100779.75;4924064;28;45948;-72
2022/11/14 11:15:32;;;;;;;;;26.50;22.00;;;;;16.25;55.98;100770.19;4977251;28;45374;-72
2022/11/14 11:18:00;;;;;;;;;23.50;22.00;;;;;16.82;53.91;100758.13;4977729;28;45376;-73
2022/11/14 11:20:37;;;;;;;;;19.75;19.75;;;;;17.14;53.21;100751.25;4977399;28;45437;-73
2022/11/14 11:23:02;;;;;;;;;23.00;20.00;;;;;17.68;52.01;100754.47;4959872;28;45397;-75
2022/11/14 11:25:30;;;;;;;;;26.00;24.75;;;;;18.29;50.83;100748.91;4977363;28;45331;-76
2022/11/14 11:28:12;;;;;;;;;23.50;19.25;;;;;18.98;48.88;100756.03;4977512;28;45397;-74
2022/11/14 11:30:38;;;;;;;;;19.75;15.50;;;;;19.62;46.89;100754.38;4977153;28;46830;-74
2022/11/14 11:33:19;;;;;;;;;20.25;20.25;;;;;20.24;45.11;100736.44;4956860;28;47051;-75
2022/11/14 11:35:48;;;;;;;;;12.00;12.00;;;;;20.81;44.99;100729.63;4977199;28;45428;-73
2022/11/14 11:38:15;;;;;;;;;23.50;20.00;;;;;20.99;43.63;100719.81;4977039;28;45431;-74
2022/11/14 11:40:44;;;;;;;;;20.00;20.00;;;;;21.18;42.55;100725.34;4970374;28;45565;-74
2022/11/14 11:43:09;;;;;;;;;19.25;19.25;;;;;21.25;42.56;100712.91;4974309;28;46419;-76
2022/11/14 11:45:36;;;;;;;;;23.50;22.25;;;;;20.97;43.55;100717.22;4976961;28;45394;-73
2022/11/14 11:48:17;;;;;;;;;22.25;22.25;;;;;20.46;43.90;100705.50;4976574;28;45398;-75
2022/11/14 11:50:42;;;;;;;;;9.75;7.75;;;;;20.04;45.13;100708.19;4977297;28;45400;-73
2022/11/14 11:53:23;;;;;;;;;19.25;19.25;;;;;19.64;46.16;100708.03;4976425;28;46061;-73
2022/11/14 11:55:52;;;;;;;;;21.75;21.75;;;;;18.96;46.82;100698.25;4976607;28;45504;-70
2022/11/14 11:58:52;;;;;;;;;20.50;20.50;;;;;18.31;48.45;100690.78;4976714;28;45385;-72
2022/11/14 12:01:18;;;;;;;;;23.00;20.50;;;;;17.67;50.04;100684.94;4975580;28;45567;-75
2022/11/14 12:03:53;;;;;;;;;26.75;24.75;;;;;17.11;51.47;100697.28;4962656;28;47045;-75
2022/11/14 12:06:26;;;;;;;;;23.25;21.75;;;;;16.59;52.83;100689.31;4940320;28;46115;-75
2022/11/14 12:09:31;;;;;;;;;22.75;21.50;;;;;16.05;54.85;100692.28;4955970;28;45376;-73
2022/11/14 12:12:03;;;;;;;;;19.00;19.00;;;;;15.74;55.92;100685.38;4918833;28;45405;-72
2022/11/14 12:14:47;;;;;;;;;22.50;20.50;;;;;15.33;56.91;100696.25;4943615;28;46577;-72
2022/11/14 12:17:21;;;;;;;;;22.25;21.75;;;;;14.99;58.05;100688.63;4978026;28;45360;-72
2022/11/14 12:20:15;;;;;;;;;21.50;21.25;;;;;14.81;58.59;100682.56;4979754;28;45328;-73
2022/11/14 12:23:11;;;;;;;;;23.00;22.75;;;;;14.62;59.13;100682.03;4979911;28;45211;-74
2022/11/14 12:26:20;;;;;;;;;27.50;25.25;;;;;14.33;60.21;100683.84;4979298;28;46286;-73
2022/11/14 12:29:03;;;;;;;;;26.25;25.50;;;;;14.15;61.11;100669.66;4975593;28;45493;-72
2022/11/14 12:31:34;;;;;;;;;32.00;28.75;;;;;14.01;61.90;100669.66;4958124;28;45489;-72
2022/11/14 12:34:27;;;;;;;;;28.75;26.25;;;;;13.98;62.79;100669.81;4975716;28;45577;-71
2022/11/14 12:36:53;;;;;;;;;25.00;23.50;;;;;13.81;62.53;100648.44;4956161;28;46218;-73
2022/11/14 12:39:25;;;;;;;;;27.25;20.50;;;;;13.74;63.37;100650.63;4976236;28;45453;-73
2022/11/14 12:42:01;;;;;;;;;26.75;23.75;;;;;13.74;63.34;100653.31;4976563;28;45297;-72
2022/11/14 12:44:26;;;;;;;;;29.00;26.00;;;;;13.69;64.19;100651.88;4958926;28;45412;-72
2022/11/14 12:47:04;;;;;;;;;27.50;25.25;;;;;13.67;64.77;100656.50;4976103;28;46146;-72
2022/11/14 12:49:35;;;;;;;;;28.50;25.00;;;;;13.67;64.88;100645.72;4971823;28;45327;-73
2022/11/14 12:52:02;;;;;;;;;27.00;23.00;;;;;13.67;64.56;100651.97;4971949;28;45373;-72
2022/11/14 12:54:45;;;;;;;;;21.75;20.50;;;;;13.69;64.84;100646.50;4975506;28;45740;-73
2022/11/14 12:57:46;;;;;;;;;29.00;25.75;;;;;13.64;65.51;100655.69;4975678;28;46483;-74
2022/11/14 13:00:08;;;;;;;;;24.50;22.00;;;;;13.46;65.50;100627.16;4975190;28;45383;-74
2022/11/14 13:02:52;;;;;;;;;22.00;22.00;;;;;13.60;65.97;100647.91;4974808;28;45338;-73
2022/11/14 13:05:32;;;;;;;;;29.00;28.00;;;;;13.57;66.49;100645.38;4975715;28;45373;-72
2022/11/14 13:08:00;;;;;;;;;21.75;20.00;;;;;13.63;66.25;100636.94;4975646;28;45378;-72
2022/11/14 13:10:39;;;;;;;;;30.25;27.25;;;;;13.58;65.94;100620.19;4975693;28;45416;-74
2022/11/14 13:22:10;;;;;;;;;32.25;27.25;;;;;14.07;66.03;100636.03;4975731;28;45361;-74
2022/11/14 13:24:57;;;;;;;;;33.50;30.25;;;;;14.20;66.55;100628.94;4975653;28;45299;-73
2022/11/14 13:27:31;;;;;;;;;29.50;26.75;;;;;14.28;66.40;100623.94;4957939;28;46544;-73
2022/11/14 13:29:59;;;;;;;;;28.75;27.50;;;;;14.33;66.16;100619.09;4975453;28;45373;-74
2022/11/14 13:32:39;;;;;;;;;32.50;29.75;;;;;14.34;66.27;100621.72;4974693;28;45382;-74
2022/11/14 13:35:14;;;;;;;;;29.25;28.00;;;;;14.33;66.56;100625.38;4975648;28;45326;-73
2022/11/14 13:38:15;;;;;;;;;39.75;35.25;;;;;14.30;66.63;100617.47;4974745;28;45587;-73
2022/11/14 13:40:46;;;;;;;;;29.00;29.00;;;;;14.27;66.67;100612.28;4972142;28;46469;-74
2022/11/14 13:43:36;;;;;;;;;34.50;30.50;;;;;14.22;67.54;100616.22;4970020;28;45594;-74
2022/11/14 13:46:34;;;;;;;;;33.00;27.75;;;;;14.08;67.74;100597.34;4974004;28;45407;-74
2022/11/14 13:49:21;;;;;;;;;29.50;29.50;;;;;14.14;67.87;100614.00;4955820;28;45348;-73
2022/11/14 13:51:52;;;;;;;;;29.25;26.00;;;;;14.11;68.25;100600.72;4963547;28;46388;-72
2022/11/14 13:54:18;;;;;;;;;31.00;31.00;;;;;14.09;68.03;100596.41;4956975;28;45398;-74
2022/11/14 13:56:49;;;;;;;;;35.50;30.25;;;;;14.04;68.22;100591.28;4975277;28;45465;-72
2022/11/14 13:59:35;;;;;;;;;27.75;27.50;;;;;14.05;68.55;100592.13;4975142;28;46523;-72
2022/11/14 14:02:15;;;;;;;;;34.75;30.00;;;;;14.08;68.63;100571.25;4974887;28;45369;-73
2022/11/14 14:05:16;;;;;;;;;33.25;29.50;;;;;14.16;68.74;100579.72;4977827;28;45402;-74
2022/11/14 14:08:09;;;;;;;;;25.50;23.75;;;;;14.28;68.89;100572.69;4944966;28;45355;-74
2022/11/14 14:10:55;;;;;;;;;23.25;23.25;;;;;14.45;68.41;100579.75;4971675;28;45510;-74
2022/11/14 14:14:01;;;;;;;;;27.25;27.00;;;;;14.70;67.97;100563.69;4976614;28;46389;-73
2022/11/14 14:16:51;;;;;;;;;31.25;29.50;;;;;14.91;66.91;100572.19;4895558;29;45368;-73
2022/11/14 14:19:25;;;;;;;;;29.50;29.00;;;;;15.01;66.90;100579.56;4972639;28;45582;-74
2022/11/14 14:22:06;;;;;;;;;31.75;26.75;;;;;14.99;66.98;100572.53;4974360;28;45389;-72
2022/11/14 14:24:38;;;;;;;;;28.75;28.75;;;;;15.10;67.63;100586.19;4974692;28;46187;-73
2022/11/14 14:27:26;;;;;;;;;35.00;29.50;;;;;15.19;66.80;100568.50;4957067;28;45540;-72
2022/11/14 14:29:54;;;;;;;;;32.00;30.25;;;;;15.30;66.70;100563.25;4974690;28;45464;-73
2022/11/14 14:32:20;;;;;;;;;28.50;28.50;;;;;15.45;66.47;100563.06;4974044;28;45414;-74
2022/11/14 14:34:47;;;;;;;;;28.25;28.25;;;;;15.56;66.06;100558.78;4974366;28;45790;-75
2022/11/14 14:37:48;;;;;;;;;29.00;27.75;;;;;15.55;66.36;100549.81;4974377;28;45377;-72
2022/11/14 14:40:23;;;;;;;;;28.00;25.75;;;;;15.72;66.24;100565.72;4974751;28;45280;-72
2022/11/14 14:42:50;;;;;;;;;31.50;26.50;;;;;15.80;65.78;100563.34;4974279;28;45199;-72
2022/11/14 14:45:18;;;;;;;;;31.25;25.00;;;;;15.72;65.62;100548.63;4956667;28;45353;-72
2022/11/14 14:47:47;;;;;;;;;26.50;24.00;;;;;15.74;66.04;100562.88;4974185;28;45501;-73
2022/11/14 14:50:22;;;;;;;;;27.25;27.00;;;;;15.64;66.69;100561.81;4974549;28;45300;-73
2022/11/14 14:52:56;;;;;;;;;30.00;26.75;;;;;15.52;67.47;100544.59;4974098;28;45447;-74
2022/11/14 14:55:25;;;;;;;;;25.25;23.25;;;;;15.40;68.28;100548.97;4973984;28;46669;-74
2022/11/14 14:57:51;;;;;;;;;25.00;22.50;;;;;15.45;68.22;100570.28;4973982;28;45409;-72
2022/11/14 15:00:25;;;;;;;;;17.75;16.75;;;;;15.18;70.10;100564.94;4974188;28;45350;-72
2022/11/14 15:02:54;;;;;;;;;21.50;17.75;;;;;15.10;71.07;100570.00;4973786;28;45650;-73
2022/11/14 15:05:24;;;;;;;;;20.25;17.25;;;;;14.99;70.39;100550.94;4956475;28;45483;-72
2022/11/14 15:07:54;;;;;;;;;19.25;16.75;;;;;15.04;71.77;100570.41;4974305;28;45486;-71
2022/11/14 15:10:22;;;;;;;;;14.25;12.25;;;;;14.96;72.21;100567.38;4956946;28;45295;-73
2022/11/14 15:12:49;;;;;;;;;13.50;13.50;;;;;14.90;73.04;100583.94;4974337;28;45421;-74
2022/11/14 15:15:17;;;;;;;;;17.25;14.75;;;;;14.86;72.96;100566.25;4975071;28;46266;-72
2022/11/14 15:17:44;;;;;;;;;16.00;16.00;;;;;14.90;72.83;100573.16;4976624;28;45462;-73
2022/11/14 15:20:27;;;;;;;;;14.00;14.00;;;;;14.89;73.13;100574.13;4959748;28;45362;-73
2022/11/14 15:23:11;;;;;;;;;18.75;14.50;;;;;14.87;73.72;100570.66;4976900;28;45669;-73
2022/11/14 15:25:37;;;;;;;;;15.50;13.25;;;;;14.88;72.83;100577.81;4977364;28;46394;-74
2022/11/14 15:28:03;;;;;;;;;15.00;14.00;;;;;14.81;73.12;100571.91;4977293;28;45414;-72
2022/11/14 15:30:33;;;;;;;;;16.25;14.00;;;;;14.75;73.80;100558.84;4976971;28;45343;-72
2022/11/14 15:33:01;;;;;;;;;17.50;15.25;;;;;14.72;73.70;100551.81;4958947;28;47426;-73
2022/11/14 15:35:34;;;;;;;;;11.00;11.00;;;;;14.79;73.55;100565.78;4976891;28;45254;-72
2022/11/14 15:38:00;;;;;;;;;16.75;13.75;;;;;14.75;73.46;100566.94;4976871;28;45568;-74
2022/11/14 15:40:26;;;;;;;;;14.25;13.25;;;;;14.69;73.72;100570.91;4976932;28;45420;-74
2022/11/14 15:42:51;;;;;;;;;17.00;17.00;;;;;14.59;74.04;100569.78;4976374;28;45259;-73
2022/11/14 15:45:38;;;;;;;;;15.75;13.25;;;;;14.53;74.31;100578.28;4976859;28;45243;-73
2022/11/14 15:48:12;;;;;;;;;14.00;14.00;;;;;14.22;75.03;100532.63;4976842;28;45325;-73
2022/11/14 15:50:39;;;;;;;;;19.50;17.00;;;;;14.47;74.76;100567.88;4977040;28;45569;-74
2022/11/14 15:53:26;;;;;;;;;14.75;14.75;;;;;14.48;74.61;100579.53;4972946;28;45826;-73
2022/11/14 15:55:52;;;;;;;;;14.00;14.00;;;;;14.45;74.76;100575.22;4976449;28;45327;-74
2022/11/14 15:58:17;;;;;;;;;15.75;15.75;;;;;14.34;74.96;100559.69;4977145;28;45400;-73
2022/11/14 16:00:50;;;;;;;;;18.25;16.00;;;;;14.41;75.04;100580.88;4977840;28;45331;-72
2022/11/14 16:03:18;;;;;;;;;11.00;11.00;;;;;14.30;75.42;100574.31;4969150;28;45299;-74
2022/11/14 16:05:47;;;;;;;;;20.00;18.50;;;;;14.32;76.02;100587.72;4979845;28;45399;-73
2022/11/14 16:08:13;;;;;;;;;19.00;16.00;;;;;14.25;76.41;100589.94;4978278;28;45403;-75
2022/11/14 16:10:38;;;;;;;;;23.50;20.50;;;;;14.16;76.67;100562.69;4955686;28;45492;-74
2022/11/14 16:13:04;;;;;;;;;15.00;15.00;;;;;14.29;76.15;100593.31;4966855;28;45327;-73
2022/11/14 16:15:30;;;;;;;;;22.50;18.75;;;;;14.26;76.82;100601.59;4976295;28;46159;-74
2022/11/14 16:17:55;;;;;;;;;17.00;15.25;;;;;14.24;77.02;100598.97;4976185;28;45319;-72
2022/11/14 16:20:36;;;;;;;;;22.00;16.75;;;;;14.20;77.34;100593.91;4976599;28;45377;-72
2022/11/14 16:23:02;;;;;;;;;22.25;20.25;;;;;14.24;76.84;100595.41;4963308;28;45305;-75
2022/11/14 16:25:29;;;;;;;;;18.50;15.50;;;;;14.12;76.95;100588.13;4960669;28;46093;-72
2022/11/14 16:27:55;;;;;;;;;21.75;17.00;;;;;14.22;77.63;100600.91;4963290;28;45454;-73
2022/11/14 16:30:22;;;;;;;;;14.50;14.50;;;;;14.18;77.84;100602.06;4956478;28;45376;-73
2022/11/14 16:32:49;;;;;;;;;21.75;21.75;;;;;14.07;78.55;100592.91;4955010;28;45572;-73
2022/11/14 16:35:21;;;;;;;;;15.00;15.00;;;;;14.15;78.15;100596.88;4956167;28;45314;-71
2022/11/14 16:37:47;;;;;;;;;18.50;17.75;;;;;14.14;78.32;100602.34;4956187;28;45402;-75
2022/11/14 16:40:14;;;;;;;;;20.50;19.00;;;;;14.17;78.46;100605.72;4956359;28;45338;-74
2022/11/14 16:42:40;;;;;;;;;21.00;19.25;;;;;14.18;78.50;100603.91;4955733;28;45489;-73
2022/11/14 16:45:06;;;;;;;;;22.25;17.25;;;;;14.17;78.25;100597.66;4956281;28;45347;-71
2022/11/14 16:47:31;;;;;;;;;17.25;17.25;;;;;14.27;78.02;100606.03;4955933;28;45559;-71
2022/11/14 16:49:57;;;;;;;;;18.25;17.75;;;;;14.30;77.56;100608.50;4963573;28;45431;-73
2022/11/14 16:52:23;;;;;;;;;17.75;17.50;;;;;14.32;77.91;100601.19;4973416;28;45366;-72
2022/11/14 16:54:48;;;;;;;;;15.00;15.00;;;;;14.21;77.71;100585.69;4968335;28;45956;-73
2022/11/14 16:57:14;;;;;;;;;16.75;16.50;;;;;14.22;77.87;100586.56;4968612;28;45414;-71
2022/11/14 16:59:39;;;;;;;;;17.75;17.75;;;;;14.36;77.79;100606.31;4965769;28;45516;-72
2022/11/14 17:02:04;;;;;;;;;17.00;16.00;;;;;14.16;77.22;100568.06;4975088;28;45353;-77
2022/11/14 17:04:30;;;;;;;;;16.75;16.75;;;;;14.45;77.44;100606.72;4974866;28;45991;-71
2022/11/14 17:06:55;;;;;;;;;20.50;15.25;;;;;14.43;77.51;100598.72;4974633;28;45449;-74
2022/11/14 17:09:20;;;;;;;;;18.25;17.50;;;;;14.47;77.48;100605.63;4974628;28;45518;-72
2022/11/14 17:11:46;;;;;;;;;20.00;18.00;;;;;14.48;77.32;100603.81;4974975;28;45786;-72
2022/11/14 17:14:11;;;;;;;;;19.00;18.75;;;;;14.49;77.66;100595.63;4969117;28;47172;-72
2022/11/14 17:16:37;;;;;;;;;19.00;16.50;;;;;14.52;77.33;100597.25;4974738;28;45394;-72